createdAt,value
2019-05-01T00:01:53.587Z,7.40
2019-05-01T00:06:09.151Z,7.30
2019-05-01T00:10:12.181Z,7.30
2019-05-01T00:14:11.358Z,7.20
2019-05-01T00:18:09.912Z,7.10
2019-05-01T00:22:11.695Z,7.00
2019-05-01T00:26:10.273Z,6.90
2019-05-01T00:30:11.964Z,6.90
2019-05-01T00:34:10.740Z,6.90
2019-05-01T00:38:09.808Z,6.90
2019-05-01T00:42:08.560Z,6.90
2019-05-01T00:46:09.977Z,6.80
2019-05-01T00:50:09.822Z,6.70
2019-05-01T00:54:08.586Z,6.70
2019-05-01T00:58:09.435Z,6.70
2019-05-01T01:02:09.659Z,6.70
2019-05-01T01:06:11.486Z,6.70
2019-05-01T01:10:10.258Z,6.70
2019-05-01T01:14:11.327Z,6.70
2019-05-01T01:18:09.967Z,6.50
2019-05-01T01:22:08.545Z,6.50
2019-05-01T01:26:07.474Z,6.40
2019-05-01T01:30:11.700Z,6.30
2019-05-01T01:34:10.575Z,6.20
2019-05-01T01:38:11.604Z,6.10
2019-05-01T01:42:10.558Z,6.00
2019-05-01T01:46:28.638Z,6.00
2019-05-01T01:50:27.343Z,5.90
2019-05-01T01:54:26.293Z,5.90
2019-05-01T01:58:26.192Z,5.80
2019-05-01T02:02:37.976Z,5.80
2019-05-01T02:06:36.984Z,5.80
2019-05-01T02:10:42.967Z,5.80
2019-05-01T02:14:44.298Z,5.90
2019-05-01T02:18:43.224Z,5.90
2019-05-01T02:22:42.812Z,5.90
2019-05-01T02:26:51.022Z,5.90
2019-05-01T02:31:07.576Z,5.80
2019-05-01T02:35:07.523Z,5.80
2019-05-01T02:39:09.477Z,5.80
2019-05-01T02:43:13.193Z,6.00
2019-05-01T02:47:16.567Z,6.20
2019-05-01T02:51:16.137Z,6.30
2019-05-01T02:55:18.242Z,6.40
2019-05-01T02:59:18.546Z,6.50
2019-05-01T03:03:17.254Z,6.50
2019-05-01T03:07:21.022Z,6.60
2019-05-01T03:11:25.313Z,6.60
2019-05-01T03:15:25.047Z,6.70
2019-05-01T03:19:36.196Z,6.70
2019-05-01T03:23:37.355Z,6.90
2019-05-01T03:27:39.667Z,7.00
2019-05-01T03:31:39.811Z,7.00
2019-05-01T03:35:38.456Z,7.10
2019-05-01T03:39:38.942Z,7.20
2019-05-01T03:43:37.574Z,7.30
2019-05-01T03:47:36.307Z,7.30
2019-05-01T03:51:41.100Z,7.40
2019-05-01T03:55:45.761Z,7.40
2019-05-01T03:59:46.881Z,7.50
2019-05-01T04:03:55.234Z,7.50
2019-05-01T04:07:54.245Z,7.60
2019-05-01T04:11:52.860Z,7.60
2019-05-01T04:16:01.818Z,7.70
2019-05-01T04:19:55.729Z,7.70
2019-05-01T04:23:58.099Z,7.70
2019-05-01T04:28:04.549Z,7.60
2019-05-01T04:32:21.219Z,7.70
2019-05-01T04:36:33.155Z,7.70
2019-05-01T04:40:32.208Z,7.70
2019-05-01T04:44:37.870Z,7.80
2019-05-01T04:48:36.815Z,7.80
2019-05-01T04:52:35.740Z,7.80
2019-05-01T04:56:34.807Z,7.80
2019-05-01T05:00:34.060Z,7.80
2019-05-01T05:04:34.260Z,7.80
2019-05-01T05:08:33.613Z,7.90
2019-05-01T05:12:43.379Z,8.00
2019-05-01T05:16:56.049Z,8.00
2019-05-01T05:21:02.564Z,8.10
2019-05-01T05:25:01.600Z,8.20
2019-05-01T05:29:02.517Z,8.30
2019-05-01T05:33:03.394Z,8.40
2019-05-01T05:37:08.429Z,8.50
2019-05-01T05:41:23.506Z,8.50
2019-05-01T05:45:22.140Z,8.50
2019-05-01T05:49:24.180Z,8.60
2019-05-01T05:53:30.005Z,8.60
2019-05-01T05:57:33.315Z,8.60
2019-05-01T06:01:47.566Z,8.60
2019-05-01T06:05:59.963Z,8.70
2019-05-01T06:10:08.209Z,8.70
2019-05-01T06:14:31.314Z,8.80
2019-05-01T06:18:29.560Z,8.80
2019-05-01T06:22:35.464Z,8.90
2019-05-01T06:26:39.403Z,9.10
2019-05-01T06:30:42.065Z,9.20
2019-05-01T06:34:40.828Z,9.20
2019-05-01T06:38:56.176Z,9.20
2019-05-01T06:43:06.873Z,9.30
2019-05-01T06:47:23.490Z,9.50
2019-05-01T06:51:55.849Z,9.60
2019-05-01T06:55:54.866Z,9.60
2019-05-01T06:59:58.466Z,9.50
2019-05-01T07:04:03.488Z,9.40
2019-05-01T07:08:02.938Z,9.30
2019-05-01T07:12:07.963Z,9.20
2019-05-01T07:16:08.811Z,9.00
2019-05-01T07:20:16.854Z,9.00
2019-05-01T07:24:16.749Z,9.00
2019-05-01T07:28:20.098Z,9.20
2019-05-01T07:32:19.227Z,9.40
2019-05-01T07:36:18.236Z,9.70
2019-05-01T07:40:20.692Z,10.40
2019-05-01T07:44:19.962Z,10.20
2019-05-01T07:48:22.800Z,10.00
2019-05-01T07:52:26.376Z,9.80
2019-05-01T07:56:28.017Z,9.70
2019-05-01T08:00:37.006Z,9.60
2019-05-01T08:04:43.498Z,9.70
2019-05-01T08:08:45.067Z,9.70
2019-05-01T08:12:55.350Z,9.70
2019-05-01T08:16:58.205Z,9.70
2019-05-01T08:21:05.678Z,9.70
2019-05-01T08:25:06.727Z,9.60
2019-05-01T08:29:23.465Z,9.40
2019-05-01T08:33:40.544Z,9.40
2019-05-01T08:37:46.597Z,9.50
2019-05-01T08:41:49.966Z,9.60
2019-05-01T08:45:59.357Z,9.60
2019-05-01T08:50:00.437Z,9.70
2019-05-01T08:53:59.919Z,9.90
2019-05-01T08:58:01.053Z,10.10
2019-05-01T09:02:09.065Z,10.20
2019-05-01T09:05:59.526Z,10.30
2019-05-01T09:09:58.352Z,10.40
2019-05-01T09:14:00.078Z,10.40
2019-05-01T09:18:06.344Z,10.30
2019-05-01T09:22:08.427Z,10.30
2019-05-01T09:26:38.664Z,10.50
2019-05-01T09:30:41.454Z,10.70
2019-05-01T09:34:42.131Z,10.70
2019-05-01T09:38:40.795Z,10.90
2019-05-01T09:42:42.602Z,11.00
2019-05-01T09:46:44.366Z,11.00
2019-05-01T09:50:50.298Z,11.00
2019-05-01T09:55:00.598Z,10.90
2019-05-01T09:59:03.149Z,10.90
2019-05-01T10:03:02.185Z,11.00
2019-05-01T10:07:02.315Z,11.10
2019-05-01T10:11:05.154Z,11.20
2019-05-01T10:15:03.187Z,11.30
2019-05-01T10:19:01.743Z,11.50
2019-05-01T10:23:12.885Z,11.80
2019-05-01T10:27:08.302Z,11.60
2019-05-01T10:31:24.593Z,11.60
2019-05-01T10:35:42.447Z,11.70
2019-05-01T10:39:36.954Z,11.70
2019-05-01T10:43:38.913Z,12.00
2019-05-01T10:47:37.505Z,12.30
2019-05-01T10:51:36.147Z,12.50
2019-05-01T10:55:34.724Z,12.70
2019-05-01T10:59:37.755Z,12.60
2019-05-01T11:03:36.413Z,12.80
2019-05-01T11:07:38.127Z,13.10
2019-05-01T11:11:37.475Z,13.50
2019-05-01T11:15:38.884Z,13.70
2019-05-01T11:19:39.510Z,14.00
2019-05-01T11:23:40.106Z,14.30
2019-05-01T11:27:38.665Z,14.10
2019-05-01T11:31:44.778Z,14.30
2019-05-01T11:36:08.928Z,14.50
2019-05-01T11:40:04.897Z,14.50
2019-05-01T11:44:09.006Z,14.70
2019-05-01T11:48:10.695Z,14.60
2019-05-01T11:52:11.110Z,14.60
2019-05-01T11:56:09.718Z,15.00
2019-05-01T12:00:12.223Z,15.40
2019-05-01T12:04:10.968Z,15.20
2019-05-01T12:08:09.586Z,15.50
2019-05-01T12:12:16.356Z,15.80
2019-05-01T12:16:16.604Z,15.70
2019-05-01T12:20:16.735Z,16.00
2019-05-01T12:24:15.968Z,15.90
2019-05-01T12:28:16.096Z,15.60
2019-05-01T12:32:14.723Z,15.30
2019-05-01T12:36:15.862Z,15.70
2019-05-01T12:40:18.961Z,16.00
2019-05-01T12:44:19.207Z,15.80
2019-05-01T12:48:18.380Z,15.30
2019-05-01T12:52:49.681Z,15.00
2019-05-01T12:56:47.652Z,15.50
2019-05-01T13:00:54.225Z,15.50
2019-05-01T13:04:55.154Z,16.00
2019-05-01T13:08:56.476Z,15.50
2019-05-01T13:12:55.035Z,15.00
2019-05-01T13:16:53.754Z,15.20
2019-05-01T13:20:54.600Z,14.90
2019-05-01T13:24:54.712Z,15.20
2019-05-01T13:28:57.466Z,15.50
2019-05-01T13:32:57.085Z,15.20
2019-05-01T13:37:02.737Z,15.40
2019-05-01T13:40:57.695Z,15.80
2019-05-01T13:44:58.602Z,16.20
2019-05-01T13:49:02.985Z,16.40
2019-05-01T13:53:01.551Z,16.40
2019-05-01T13:57:01.936Z,16.10
2019-05-01T14:01:02.198Z,16.10
2019-05-01T14:05:00.926Z,16.30
2019-05-01T14:09:03.659Z,16.40
2019-05-01T14:13:02.450Z,16.50
2019-05-01T14:17:02.821Z,16.60
2019-05-01T14:21:09.778Z,16.70
2019-05-01T14:25:14.209Z,16.80
2019-05-01T14:29:12.763Z,16.80
2019-05-01T14:33:14.489Z,16.70
2019-05-01T14:37:15.276Z,17.20
2019-05-01T14:41:25.820Z,19.10
2019-05-01T14:45:27.423Z,21.20
2019-05-01T14:49:28.555Z,22.60
2019-05-01T14:53:30.047Z,23.70
2019-05-01T14:57:31.830Z,24.30
2019-05-01T15:01:30.614Z,25.40
2019-05-01T15:05:29.236Z,24.60
2019-05-01T15:09:29.769Z,24.30
2019-05-01T15:13:39.254Z,24.70
2019-05-01T15:17:39.757Z,24.40
2019-05-01T15:21:41.422Z,24.50
2019-05-01T15:25:47.917Z,25.00
2019-05-01T15:29:42.138Z,25.80
2019-05-01T15:33:40.785Z,25.90
2019-05-01T15:37:40.921Z,25.80
2019-05-01T15:41:52.904Z,25.10
2019-05-01T15:45:58.196Z,24.30
2019-05-01T15:49:52.162Z,22.00
2019-05-01T15:53:51.060Z,20.40
2019-05-01T15:57:49.719Z,19.20
2019-05-01T16:01:49.188Z,18.20
2019-05-01T16:05:49.451Z,17.70
2019-05-01T16:09:52.781Z,17.30
2019-05-01T16:13:55.582Z,17.00
2019-05-01T16:18:00.808Z,17.00
2019-05-01T16:21:59.372Z,17.00
2019-05-01T16:25:58.209Z,16.80
2019-05-01T16:29:58.983Z,16.40
2019-05-01T16:34:19.717Z,16.30
2019-05-01T16:38:30.418Z,15.90
2019-05-01T16:42:30.879Z,15.60
2019-05-01T16:46:29.711Z,15.40
2019-05-01T16:50:37.587Z,15.30
2019-05-01T16:54:42.462Z,15.20
2019-05-01T16:58:41.321Z,14.90
2019-05-01T17:02:43.500Z,14.60
2019-05-01T17:07:00.046Z,14.60
2019-05-01T17:11:01.192Z,14.60
2019-05-01T17:14:59.826Z,14.50
2019-05-01T17:18:58.923Z,14.30
2019-05-01T17:23:00.917Z,14.30
2019-05-01T17:26:59.933Z,14.30
2019-05-01T17:31:00.390Z,14.20
2019-05-01T17:35:01.813Z,14.10
2019-05-01T17:39:18.206Z,14.00
2019-05-01T17:43:16.712Z,13.80
2019-05-01T17:47:17.969Z,13.70
2019-05-01T17:51:20.852Z,13.70
2019-05-01T17:55:23.128Z,13.50
2019-05-01T17:59:22.491Z,13.40
2019-05-01T18:03:45.105Z,13.10
2019-05-01T18:07:46.868Z,13.00
2019-05-01T18:11:47.295Z,12.90
2019-05-01T18:15:51.994Z,12.70
2019-05-01T18:19:54.861Z,12.60
2019-05-01T18:24:11.138Z,12.40
2019-05-01T18:28:13.601Z,12.20
2019-05-01T18:32:28.178Z,11.90
2019-05-01T18:36:34.249Z,11.70
2019-05-01T18:40:34.518Z,11.60
2019-05-01T18:44:47.302Z,11.40
2019-05-01T18:48:48.712Z,11.30
2019-05-01T18:52:47.257Z,11.10
2019-05-01T18:56:54.594Z,11.00
2019-05-01T19:00:56.031Z,10.80
2019-05-01T19:04:54.764Z,11.10
2019-05-01T19:08:56.695Z,11.50
2019-05-01T19:12:58.699Z,11.20
2019-05-01T19:17:00.827Z,10.80
2019-05-01T19:21:01.935Z,10.50
2019-05-01T19:25:10.966Z,10.40
2019-05-01T19:29:03.552Z,10.30
2019-05-01T19:33:04.396Z,10.20
2019-05-01T19:37:22.085Z,10.10
2019-05-01T19:41:21.275Z,10.00
2019-05-01T19:45:19.955Z,9.90
2019-05-01T19:49:18.527Z,9.80
2019-05-01T19:53:20.027Z,9.80
2019-05-01T19:57:29.987Z,9.70
2019-05-01T20:01:28.956Z,9.60
2019-05-01T20:05:33.390Z,9.50
2019-05-01T20:09:31.367Z,9.40
2019-05-01T20:13:34.619Z,9.30
2019-05-01T20:17:33.686Z,9.20
2019-05-01T20:21:41.995Z,9.10
2019-05-01T20:25:51.000Z,9.10
2019-05-01T20:29:52.355Z,9.00
2019-05-01T20:33:50.936Z,8.90
2019-05-01T20:37:52.014Z,8.80
2019-05-01T20:41:54.139Z,8.70
2019-05-01T20:45:52.727Z,8.60
2019-05-01T20:49:51.295Z,8.60
2019-05-01T20:53:49.978Z,8.50
2019-05-01T20:57:49.837Z,8.40
2019-05-01T21:01:59.567Z,8.20
2019-05-01T21:06:07.729Z,8.20
2019-05-01T21:10:24.091Z,8.20
2019-05-01T21:14:21.987Z,8.10
2019-05-01T21:18:15.596Z,8.00
2019-05-01T21:22:17.793Z,7.90
2019-05-01T21:26:19.339Z,7.90
2019-05-01T21:30:23.673Z,7.80
2019-05-01T21:34:24.401Z,7.70
2019-05-01T21:38:23.415Z,7.70
2019-05-01T21:42:24.323Z,7.60
2019-05-01T21:46:23.841Z,7.60
2019-05-01T21:50:26.371Z,7.60
2019-05-01T21:54:23.067Z,7.60
2019-05-01T21:58:28.325Z,7.50
2019-05-01T22:02:26.425Z,7.40
2019-05-01T22:06:24.917Z,7.40
2019-05-01T22:10:26.588Z,7.30
2019-05-01T22:14:31.065Z,7.20
2019-05-01T22:18:34.085Z,7.20
2019-05-01T22:22:38.839Z,7.20
2019-05-01T22:26:46.097Z,7.20
2019-05-01T22:30:49.167Z,7.10
2019-05-01T22:34:50.203Z,7.10
2019-05-01T22:38:48.857Z,7.10
2019-05-01T22:42:47.516Z,7.10
2019-05-01T22:46:46.085Z,7.10
2019-05-01T22:51:04.237Z,7.10
2019-05-01T22:55:05.952Z,7.10
2019-05-01T22:59:05.373Z,7.00
2019-05-01T23:03:10.314Z,6.90
2019-05-01T23:07:11.660Z,6.80
2019-05-01T23:11:19.827Z,6.80
2019-05-01T23:15:24.088Z,6.80
2019-05-01T23:19:27.822Z,6.80
2019-05-01T23:23:27.256Z,6.70
2019-05-01T23:27:30.673Z,6.60
2019-05-01T23:31:33.125Z,6.60
2019-05-01T23:35:32.187Z,6.60
2019-05-01T23:39:39.719Z,6.60
2019-05-01T23:43:34.097Z,6.50
2019-05-01T23:47:32.706Z,6.50
2019-05-01T23:51:32.852Z,6.30
2019-05-01T23:55:31.425Z,6.30
2019-05-01T23:59:29.995Z,6.20
